Torre De Belem — CSIO — position and weather

sailwx.info

Track history (hours):
 
Tides and Currents Weather Stations Pressure Air Temp Water Temp Dewpoint Dewpoint Depression Visibility Wind Speed Wind Dir Waves Ship Positions

Torre De Belem

Last reported at 2016-Nov-29 14:33 UTC. Time now 2016-Dec-03 13:44 UTC.
Position N 38°38' W 009°07'.

Length 14 m.

MMSI: 263671850.

Date/timePositionNaut miles runAvg speedWind from/ knotsBaromVisibWave heightAir tempDewpointWater temp
2016-Nov-29 14:33N 38°38' W 009°07'6 6.0
2016-Nov-29 13:31N 38°42' W 009°14'0 0.0
2016-Nov-29 12:33N 38°42' W 009°14'0 0.0
2016-Nov-29 11:33N 38°42' W 009°14'4 4.5
2016-Nov-29 10:33N 38°40' W 009°09'4 4.5
2016-Nov-29 09:33N 38°42' W 009°14'0 0.0
2016-Nov-28 19:21N 38°42' W 009°14'0 0.0
2016-Nov-28 18:32N 38°42' W 009°14'0 0.0
2016-Nov-28 17:31N 38°42' W 009°14'0 0.0
2016-Nov-28 16:32N 38°42' W 009°14'0 0.0
2016-Nov-28 15:33N 38°42' W 009°14'0 0.0
2016-Nov-28 14:32N 38°42' W 009°14'0 0.0
2016-Nov-28 13:33N 38°42' W 009°14'0 0.0
2016-Nov-28 12:33N 38°42' W 009°14'0 0.0
2016-Nov-28 11:31N 38°42' W 009°14'0 0.0
2016-Nov-28 10:33N 38°42' W 009°14'0 0.0
2016-Nov-28 09:32N 38°42' W 009°14'1 0.8
2016-Nov-28 08:33N 38°41' W 009°13'1 0.6
2016-Nov-28 07:11N 38°42' W 009°14'0 0.0
2016-Nov-28 06:33N 38°42' W 009°14'0 0.0
2016-Nov-28 05:33N 38°42' W 009°14'0 0.0
2016-Nov-28 04:33N 38°42' W 009°14'0 0.0
2016-Nov-28 03:33N 38°42' W 009°14'0 0.0
2016-Nov-28 02:33N 38°42' W 009°14'0 0.0
2016-Nov-28 01:33N 38°42' W 009°14'2 1.9
2016-Nov-28 00:33N 38°41' W 009°12'2 1.9
2016-Nov-27 23:33N 38°42' W 009°14'4 0.3
2016-Nov-27 09:33N 38°41' W 009°09'4 3.6
2016-Nov-27 08:33N 38°42' W 009°14'1 0.8
2016-Nov-27 07:33N 38°41' W 009°13'1 0.4
2016-Nov-27 05:33N 38°42' W 009°14'0 0.0
2016-Nov-27 04:33N 38°42' W 009°14'0 0.0
2016-Nov-27 03:32N 38°42' W 009°14'1 1.4
2016-Nov-27 02:34N 38°41' W 009°13'1 1.3
2016-Nov-27 01:33N 38°42' W 009°14'0 0.0
2016-Nov-27 00:32N 38°42' W 009°14'0 0.0
2016-Nov-26 23:32N 38°42' W 009°14'0 0.0
2016-Nov-26 22:32N 38°42' W 009°14'0 0.0
2016-Nov-26 21:33N 38°42' W 009°14'0 0.5
2016-Nov-26 20:33N 38°41' W 009°14'0 0.5
2016-Nov-26 19:33N 38°42' W 009°14'0 0.0
2016-Nov-26 18:33N 38°42' W 009°14'1 0.6
2016-Nov-26 17:34N 38°41' W 009°15'1 0.0
2016-Nov-26 04:33N 38°42' W 009°14'0 0.0
2016-Nov-26 03:32N 38°42' W 009°14'0 0.0
2016-Nov-26 02:33N 38°42' W 009°14'0 0.0
2016-Nov-26 01:33N 38°42' W 009°14'1 1.2
2016-Nov-26 00:33N 38°41' W 009°13'1 1.2
2016-Nov-25 23:34N 38°42' W 009°14'1 0.7
2016-Nov-25 22:33N 38°41' W 009°13'1 0.7
2016-Nov-25 21:33N 38°42' W 009°14'0 0.0
2016-Nov-25 20:33N 38°42' W 009°14'1 0.1
2016-Nov-25 13:33N 38°41' W 009°15'8 7.6
2016-Nov-25 12:33N 38°42' W 009°25'0 0.0
2016-Nov-25 11:33N 38°42' W 009°25'0 0.0
2016-Nov-24 23:33N 38°42' W 009°25'0 0.3
2016-Nov-24 22:33N 38°42' W 009°25'0 0.0
2016-Nov-24 02:33N 38°42' W 009°25'0 0.1
2016-Nov-23 19:33N 38°41' W 009°25'0 0.1
2016-Nov-23 16:05N 38°42' W 009°25'5 9.0
2016-Nov-23 15:33N 38°37' W 009°22'5 4.7
2016-Nov-23 14:33N 38°42' W 009°25'0 0.0
2016-Nov-22 05:33N 38°42' W 009°25'2 0.6
2016-Nov-22 02:33N 38°40' W 009°25'1 0.0
2016-Nov-21 08:33N 38°40' W 009°25'1 0.0
2016-Nov-19 14:33N 38°42' W 009°25'  
Track history (hours):
 
Tides and Currents Weather Stations Pressure Air Temp Water Temp Dewpoint Dewpoint Depression Visibility Wind Speed Wind Dir Waves Ship Positions

Torre De Belem

Last reported at 2016-Nov-29 14:33 UTC. Time now 2016-Dec-03 13:44 UTC.
Position N 38°38' W 009°07'.

Length 14 m.

MMSI: 263671850.

Date/timePositionNaut miles runAvg speedWind from/ knotsBaromVisibWave heightAir tempDewpointWater temp
2016-Nov-29 14:33N 38°38' W 009°07'6 6.0
2016-Nov-29 13:31N 38°42' W 009°14'0 0.0
2016-Nov-29 12:33N 38°42' W 009°14'0 0.0
2016-Nov-29 11:33N 38°42' W 009°14'4 4.5
2016-Nov-29 10:33N 38°40' W 009°09'4 4.5
2016-Nov-29 09:33N 38°42' W 009°14'0 0.0
2016-Nov-28 19:21N 38°42' W 009°14'0 0.0
2016-Nov-28 18:32N 38°42' W 009°14'0 0.0
2016-Nov-28 17:31N 38°42' W 009°14'0 0.0
2016-Nov-28 16:32N 38°42' W 009°14'0 0.0
2016-Nov-28 15:33N 38°42' W 009°14'0 0.0
2016-Nov-28 14:32N 38°42' W 009°14'0 0.0
2016-Nov-28 13:33N 38°42' W 009°14'0 0.0
2016-Nov-28 12:33N 38°42' W 009°14'0 0.0
2016-Nov-28 11:31N 38°42' W 009°14'0 0.0
2016-Nov-28 10:33N 38°42' W 009°14'0 0.0
2016-Nov-28 09:32N 38°42' W 009°14'1 0.8
2016-Nov-28 08:33N 38°41' W 009°13'1 0.6
2016-Nov-28 07:11N 38°42' W 009°14'0 0.0
2016-Nov-28 06:33N 38°42' W 009°14'0 0.0
2016-Nov-28 05:33N 38°42' W 009°14'0 0.0
2016-Nov-28 04:33N 38°42' W 009°14'0 0.0
2016-Nov-28 03:33N 38°42' W 009°14'0 0.0
2016-Nov-28 02:33N 38°42' W 009°14'0 0.0
2016-Nov-28 01:33N 38°42' W 009°14'2 1.9
2016-Nov-28 00:33N 38°41' W 009°12'2 1.9
2016-Nov-27 23:33N 38°42' W 009°14'4 0.3
2016-Nov-27 09:33N 38°41' W 009°09'4 3.6
2016-Nov-27 08:33N 38°42' W 009°14'1 0.8
2016-Nov-27 07:33N 38°41' W 009°13'1 0.4
2016-Nov-27 05:33N 38°42' W 009°14'0 0.0
2016-Nov-27 04:33N 38°42' W 009°14'0 0.0
2016-Nov-27 03:32N 38°42' W 009°14'1 1.4
2016-Nov-27 02:34N 38°41' W 009°13'1 1.3
2016-Nov-27 01:33N 38°42' W 009°14'0 0.0
2016-Nov-27 00:32N 38°42' W 009°14'0 0.0
2016-Nov-26 23:32N 38°42' W 009°14'0 0.0
2016-Nov-26 22:32N 38°42' W 009°14'0 0.0
2016-Nov-26 21:33N 38°42' W 009°14'0 0.5
2016-Nov-26 20:33N 38°41' W 009°14'0 0.5
2016-Nov-26 19:33N 38°42' W 009°14'0 0.0
2016-Nov-26 18:33N 38°42' W 009°14'1 0.6
2016-Nov-26 17:34N 38°41' W 009°15'1 0.0
2016-Nov-26 04:33N 38°42' W 009°14'0 0.0
2016-Nov-26 03:32N 38°42' W 009°14'0 0.0
2016-Nov-26 02:33N 38°42' W 009°14'0 0.0
2016-Nov-26 01:33N 38°42' W 009°14'1 1.2
2016-Nov-26 00:33N 38°41' W 009°13'1 1.2
2016-Nov-25 23:34N 38°42' W 009°14'1 0.7
2016-Nov-25 22:33N 38°41' W 009°13'1 0.7
2016-Nov-25 21:33N 38°42' W 009°14'0 0.0
2016-Nov-25 20:33N 38°42' W 009°14'1 0.1
2016-Nov-25 13:33N 38°41' W 009°15'8 7.6
2016-Nov-25 12:33N 38°42' W 009°25'0 0.0
2016-Nov-25 11:33N 38°42' W 009°25'0 0.0
2016-Nov-24 23:33N 38°42' W 009°25'0 0.3
2016-Nov-24 22:33N 38°42' W 009°25'0 0.0
2016-Nov-24 02:33N 38°42' W 009°25'0 0.1
2016-Nov-23 19:33N 38°41' W 009°25'0 0.1
2016-Nov-23 16:05N 38°42' W 009°25'5 9.0
2016-Nov-23 15:33N 38°37' W 009°22'5 4.7
2016-Nov-23 14:33N 38°42' W 009°25'0 0.0
2016-Nov-22 05:33N 38°42' W 009°25'2 0.6
2016-Nov-22 02:33N 38°40' W 009°25'1 0.0
2016-Nov-21 08:33N 38°40' W 009°25'1 0.0
2016-Nov-19 14:33N 38°42' W 009°25'  

Dump ship's entire track history